Anangel Fortune — SXVD — position and weather

sailwx.info

Track history (hours):
 
Tides and Currents Weather Stations Pressure Air Temp Water Temp Dewpoint Dewpoint Depression Visibility Wind Speed Wind Dir Waves Ship Positions

Anangel Fortune

Last reported at 2018-Jan-11 01:54 UTC. Time now 2018-Jan-23 00:06 UTC.
Position N 01°19' E 103°18'.
Warning: this ship's position is 11 days out of date.

Length 289 m; draft 10.6 m.

Type: Cargo ship. MMSI: 240385000.

Date/timePositionNaut miles runAvg speedWind from/ knotsBaromVisibWave heightAir tempDewpointWater temp
2018-Jan-11 01:54N 01°19' E 103°18'511.6
2018-Jan-11 01:29N 01°17' E 103°22'511.4
2018-Jan-11 01:01N 01°14' E 103°27'510.8
2018-Jan-11 00:30N 01°13' E 103°32'610.6
2018-Jan-10 23:58N 01°12' E 103°38'4 8.0
2018-Jan-10 23:30N 01°10' E 103°41'1 2.1
2018-Jan-10 22:59N 01°10' E 103°42'1 2.0
2018-Jan-10 22:30N 01°09' E 103°43'3 4.8
2018-Jan-10 21:59N 01°09' E 103°46'5 9.9
2018-Jan-10 21:30N 01°11' E 103°50'610.8
2018-Jan-10 20:59N 01°13' E 103°55'612.0
2018-Jan-10 20:29N 01°16' E 104°00'612.6
2018-Jan-10 19:59N 01°16' E 104°07'1012.4
2018-Jan-10 19:08N 01°18' E 104°17'  
Track history (hours):
 
Tides and Currents Weather Stations Pressure Air Temp Water Temp Dewpoint Dewpoint Depression Visibility Wind Speed Wind Dir Waves Ship Positions

Anangel Fortune

Last reported at 2018-Jan-11 01:54 UTC. Time now 2018-Jan-23 00:06 UTC.
Position N 01°19' E 103°18'.
Warning: this ship's position is 11 days out of date.

Length 289 m; draft 10.6 m.

Type: Cargo ship. MMSI: 240385000.

Date/timePositionNaut miles runAvg speedWind from/ knotsBaromVisibWave heightAir tempDewpointWater temp
2018-Jan-11 01:54N 01°19' E 103°18'511.6
2018-Jan-11 01:29N 01°17' E 103°22'511.4
2018-Jan-11 01:01N 01°14' E 103°27'510.8
2018-Jan-11 00:30N 01°13' E 103°32'610.6
2018-Jan-10 23:58N 01°12' E 103°38'4 8.0
2018-Jan-10 23:30N 01°10' E 103°41'1 2.1
2018-Jan-10 22:59N 01°10' E 103°42'1 2.0
2018-Jan-10 22:30N 01°09' E 103°43'3 4.8
2018-Jan-10 21:59N 01°09' E 103°46'5 9.9
2018-Jan-10 21:30N 01°11' E 103°50'610.8
2018-Jan-10 20:59N 01°13' E 103°55'612.0
2018-Jan-10 20:29N 01°16' E 104°00'612.6
2018-Jan-10 19:59N 01°16' E 104°07'1012.4
2018-Jan-10 19:08N 01°18' E 104°17'  

Dump ship's entire track history